sensor_id;sensor_type;location;lat;lon;timestamp;P1;durP1;ratioP1;P2;durP2;ratioP2
63312;SDS011;49442;45.640;13.812;2023-06-22T00:00:51;16.63;;;10.68;;
63312;SDS011;49442;45.640;13.812;2023-06-22T00:03:18;15.55;;;11.20;;
63312;SDS011;49442;45.640;13.812;2023-06-22T00:05:44;17.58;;;11.48;;
63312;SDS011;49442;45.640;13.812;2023-06-22T00:08:11;24.45;;;12.27;;
63312;SDS011;49442;45.640;13.812;2023-06-22T00:10:36;16.05;;;11.13;;
63312;SDS011;49442;45.640;13.812;2023-06-22T00:13:02;15.50;;;11.77;;
63312;SDS011;49442;45.640;13.812;2023-06-22T00:15:28;16.75;;;11.10;;
63312;SDS011;49442;45.640;13.812;2023-06-22T00:17:54;13.07;;;11.60;;
63312;SDS011;49442;45.640;13.812;2023-06-22T00:20:22;18.45;;;12.10;;
63312;SDS011;49442;45.640;13.812;2023-06-22T00:22:52;16.77;;;12.70;;
63312;SDS011;49442;45.640;13.812;2023-06-22T00:25:19;15.65;;;12.75;;
63312;SDS011;49442;45.640;13.812;2023-06-22T00:27:44;24.23;;;14.65;;
63312;SDS011;49442;45.640;13.812;2023-06-22T00:30:10;15.95;;;13.07;;
63312;SDS011;49442;45.640;13.812;2023-06-22T00:32:36;20.58;;;13.07;;
63312;SDS011;49442;45.640;13.812;2023-06-22T00:35:02;16.85;;;12.38;;
63312;SDS011;49442;45.640;13.812;2023-06-22T00:37:27;19.80;;;13.70;;
63312;SDS011;49442;45.640;13.812;2023-06-22T00:39:55;17.50;;;13.07;;
63312;SDS011;49442;45.640;13.812;2023-06-22T00:42:21;15.27;;;12.65;;
63312;SDS011;49442;45.640;13.812;2023-06-22T00:44:47;18.40;;;13.85;;
63312;SDS011;49442;45.640;13.812;2023-06-22T00:47:13;16.90;;;13.95;;
63312;SDS011;49442;45.640;13.812;2023-06-22T00:49:42;17.33;;;12.75;;
63312;SDS011;49442;45.640;13.812;2023-06-22T00:52:08;18.67;;;13.35;;
63312;SDS011;49442;45.640;13.812;2023-06-22T00:54:42;16.73;;;12.30;;
63312;SDS011;49442;45.640;13.812;2023-06-22T00:57:14;17.08;;;11.90;;
63312;SDS011;49442;45.640;13.812;2023-06-22T00:59:44;20.17;;;12.00;;
63312;SDS011;49442;45.640;13.812;2023-06-22T01:02:11;16.77;;;12.15;;
63312;SDS011;49442;45.640;13.812;2023-06-22T01:04:37;12.80;;;11.40;;
63312;SDS011;49442;45.640;13.812;2023-06-22T01:10:03;19.25;;;12.52;;
63312;SDS011;49442;45.640;13.812;2023-06-22T01:12:42;15.80;;;11.80;;
63312;SDS011;49442;45.640;13.812;2023-06-22T01:15:14;21.48;;;12.35;;
63312;SDS011;49442;45.640;13.812;2023-06-22T01:17:45;16.48;;;11.63;;
63312;SDS011;49442;45.640;13.812;2023-06-22T01:20:13;15.00;;;11.32;;
63312;SDS011;49442;45.640;13.812;2023-06-22T01:23:05;18.67;;;11.57;;
63312;SDS011;49442;45.640;13.812;2023-06-22T01:31:07;19.55;;;11.68;;
63312;SDS011;49442;45.640;13.812;2023-06-22T01:33:37;17.23;;;12.10;;
63312;SDS011;49442;45.640;13.812;2023-06-22T01:36:06;15.13;;;12.00;;
63312;SDS011;49442;45.640;13.812;2023-06-22T01:38:33;20.63;;;12.52;;
63312;SDS011;49442;45.640;13.812;2023-06-22T01:41:00;14.35;;;11.60;;
63312;SDS011;49442;45.640;13.812;2023-06-22T01:43:27;17.65;;;12.57;;
63312;SDS011;49442;45.640;13.812;2023-06-22T01:45:54;14.57;;;11.85;;
63312;SDS011;49442;45.640;13.812;2023-06-22T01:48:21;16.13;;;11.55;;
63312;SDS011;49442;45.640;13.812;2023-06-22T01:50:48;14.52;;;11.98;;
63312;SDS011;49442;45.640;13.812;2023-06-22T01:53:14;16.67;;;12.20;;
63312;SDS011;49442;45.640;13.812;2023-06-22T01:55:40;17.48;;;12.18;;
63312;SDS011;49442;45.640;13.812;2023-06-22T01:58:05;16.05;;;11.15;;
63312;SDS011;49442;45.640;13.812;2023-06-22T02:00:31;17.05;;;11.48;;
63312;SDS011;49442;45.640;13.812;2023-06-22T02:03:02;14.25;;;10.75;;
63312;SDS011;49442;45.640;13.812;2023-06-22T02:05:37;16.38;;;11.88;;
63312;SDS011;49442;45.640;13.812;2023-06-22T02:08:15;15.65;;;12.00;;
63312;SDS011;49442;45.640;13.812;2023-06-22T02:10:46;14.05;;;11.13;;
63312;SDS011;49442;45.640;13.812;2023-06-22T02:13:13;20.77;;;11.65;;
63312;SDS011;49442;45.640;13.812;2023-06-22T02:15:40;16.00;;;11.73;;
63312;SDS011;49442;45.640;13.812;2023-06-22T02:18:06;15.18;;;11.48;;
63312;SDS011;49442;45.640;13.812;2023-06-22T02:20:32;16.33;;;11.73;;
63312;SDS011;49442;45.640;13.812;2023-06-22T02:23:01;21.85;;;11.90;;
63312;SDS011;49442;45.640;13.812;2023-06-22T02:25:27;16.58;;;10.98;;
63312;SDS011;49442;45.640;13.812;2023-06-22T02:27:52;15.05;;;12.38;;
63312;SDS011;49442;45.640;13.812;2023-06-22T02:30:18;14.82;;;10.90;;
63312;SDS011;49442;45.640;13.812;2023-06-22T02:32:43;21.85;;;11.55;;
63312;SDS011;49442;45.640;13.812;2023-06-22T02:35:09;14.65;;;11.60;;
63312;SDS011;49442;45.640;13.812;2023-06-22T02:37:36;17.20;;;12.65;;
63312;SDS011;49442;45.640;13.812;2023-06-22T02:40:04;23.85;;;13.10;;
63312;SDS011;49442;45.640;13.812;2023-06-22T02:42:33;17.58;;;12.20;;
63312;SDS011;49442;45.640;13.812;2023-06-22T02:44:59;17.00;;;11.88;;
63312;SDS011;49442;45.640;13.812;2023-06-22T02:47:25;14.40;;;12.00;;
63312;SDS011;49442;45.640;13.812;2023-06-22T02:49:51;15.93;;;12.65;;
63312;SDS011;49442;45.640;13.812;2023-06-22T02:52:17;16.48;;;11.75;;
63312;SDS011;49442;45.640;13.812;2023-06-22T02:54:43;14.75;;;11.85;;
63312;SDS011;49442;45.640;13.812;2023-06-22T02:57:11;18.88;;;12.38;;
63312;SDS011;49442;45.640;13.812;2023-06-22T02:59:41;15.50;;;10.90;;
63312;SDS011;49442;45.640;13.812;2023-06-22T03:02:07;14.57;;;11.60;;
63312;SDS011;49442;45.640;13.812;2023-06-22T03:04:34;16.98;;;12.02;;
63312;SDS011;49442;45.640;13.812;2023-06-22T03:07:00;15.90;;;12.13;;
63312;SDS011;49442;45.640;13.812;2023-06-22T03:09:27;14.10;;;11.52;;
63312;SDS011;49442;45.640;13.812;2023-06-22T03:11:53;13.13;;;10.95;;
63312;SDS011;49442;45.640;13.812;2023-06-22T03:14:19;14.65;;;11.90;;
63312;SDS011;49442;45.640;13.812;2023-06-22T03:16:45;21.42;;;11.63;;
63312;SDS011;49442;45.640;13.812;2023-06-22T03:19:11;19.73;;;11.82;;
63312;SDS011;49442;45.640;13.812;2023-06-22T03:21:38;22.40;;;12.50;;
63312;SDS011;49442;45.640;13.812;2023-06-22T03:24:04;18.33;;;11.93;;
63312;SDS011;49442;45.640;13.812;2023-06-22T03:26:30;15.88;;;12.63;;
63312;SDS011;49442;45.640;13.812;2023-06-22T03:28:56;18.38;;;12.02;;
63312;SDS011;49442;45.640;13.812;2023-06-22T03:31:22;17.65;;;12.73;;
63312;SDS011;49442;45.640;13.812;2023-06-22T03:33:48;16.75;;;11.98;;
63312;SDS011;49442;45.640;13.812;2023-06-22T03:36:15;19.30;;;13.23;;
63312;SDS011;49442;45.640;13.812;2023-06-22T03:38:44;14.70;;;12.10;;
63312;SDS011;49442;45.640;13.812;2023-06-22T03:41:10;17.10;;;12.52;;
63312;SDS011;49442;45.640;13.812;2023-06-22T03:43:36;17.40;;;11.85;;
63312;SDS011;49442;45.640;13.812;2023-06-22T03:46:02;19.42;;;12.35;;
63312;SDS011;49442;45.640;13.812;2023-06-22T03:48:28;18.95;;;12.52;;
63312;SDS011;49442;45.640;13.812;2023-06-22T03:50:53;19.02;;;13.45;;
63312;SDS011;49442;45.640;13.812;2023-06-22T03:53:19;19.13;;;13.50;;
63312;SDS011;49442;45.640;13.812;2023-06-22T03:55:48;25.02;;;13.40;;
63312;SDS011;49442;45.640;13.812;2023-06-22T03:58:18;21.65;;;12.50;;
63312;SDS011;49442;45.640;13.812;2023-06-22T04:00:46;22.05;;;12.45;;
63312;SDS011;49442;45.640;13.812;2023-06-22T04:03:13;15.68;;;12.27;;
63312;SDS011;49442;45.640;13.812;2023-06-22T04:05:39;21.45;;;12.45;;
63312;SDS011;49442;45.640;13.812;2023-06-22T04:08:05;29.33;;;13.35;;
63312;SDS011;49442;45.640;13.812;2023-06-22T04:10:31;17.05;;;11.88;;
63312;SDS011;49442;45.640;13.812;2023-06-22T04:12:57;23.92;;;13.30;;
63312;SDS011;49442;45.640;13.812;2023-06-22T04:15:22;15.93;;;11.60;;
63312;SDS011;49442;45.640;13.812;2023-06-22T04:17:48;21.65;;;12.65;;
63312;SDS011;49442;45.640;13.812;2023-06-22T04:20:14;16.95;;;12.10;;
63312;SDS011;49442;45.640;13.812;2023-06-22T04:22:40;20.65;;;12.25;;
63312;SDS011;49442;45.640;13.812;2023-06-22T04:25:06;21.65;;;12.82;;
63312;SDS011;49442;45.640;13.812;2023-06-22T04:27:35;22.08;;;14.82;;
63312;SDS011;49442;45.640;13.812;2023-06-22T04:30:03;23.13;;;13.23;;
63312;SDS011;49442;45.640;13.812;2023-06-22T04:32:29;22.52;;;13.00;;
63312;SDS011;49442;45.640;13.812;2023-06-22T04:34:55;17.00;;;13.00;;
63312;SDS011;49442;45.640;13.812;2023-06-22T04:37:20;14.13;;;12.43;;
63312;SDS011;49442;45.640;13.812;2023-06-22T04:39:48;21.10;;;13.40;;
63312;SDS011;49442;45.640;13.812;2023-06-22T04:42:15;20.13;;;12.77;;
63312;SDS011;49442;45.640;13.812;2023-06-22T04:44:40;18.70;;;12.75;;
63312;SDS011;49442;45.640;13.812;2023-06-22T04:47:07;18.30;;;13.25;;
63312;SDS011;49442;45.640;13.812;2023-06-22T04:49:34;23.35;;;12.80;;
63312;SDS011;49442;45.640;13.812;2023-06-22T04:54:29;20.65;;;13.45;;
63312;SDS011;49442;45.640;13.812;2023-06-22T04:57:01;22.88;;;13.45;;
63312;SDS011;49442;45.640;13.812;2023-06-22T04:59:29;17.70;;;12.32;;
63312;SDS011;49442;45.640;13.812;2023-06-22T05:01:56;18.67;;;13.20;;
63312;SDS011;49442;45.640;13.812;2023-06-22T05:04:26;21.80;;;13.45;;
63312;SDS011;49442;45.640;13.812;2023-06-22T05:06:56;18.45;;;13.02;;
63312;SDS011;49442;45.640;13.812;2023-06-22T05:09:23;18.50;;;12.25;;
63312;SDS011;49442;45.640;13.812;2023-06-22T05:11:50;22.58;;;13.93;;
63312;SDS011;49442;45.640;13.812;2023-06-22T05:14:16;24.50;;;14.27;;
63312;SDS011;49442;45.640;13.812;2023-06-22T05:16:43;21.48;;;13.52;;
63312;SDS011;49442;45.640;13.812;2023-06-22T05:19:09;28.45;;;14.25;;
63312;SDS011;49442;45.640;13.812;2023-06-22T05:21:36;24.42;;;14.27;;
63312;SDS011;49442;45.640;13.812;2023-06-22T05:24:01;26.00;;;13.43;;
63312;SDS011;49442;45.640;13.812;2023-06-22T05:26:31;24.15;;;13.80;;
63312;SDS011;49442;45.640;13.812;2023-06-22T05:29:01;19.23;;;13.10;;
63312;SDS011;49442;45.640;13.812;2023-06-22T05:31:28;20.92;;;14.07;;
63312;SDS011;49442;45.640;13.812;2023-06-22T05:33:54;21.02;;;13.18;;
63312;SDS011;49442;45.640;13.812;2023-06-22T05:36:20;17.42;;;13.10;;
63312;SDS011;49442;45.640;13.812;2023-06-22T05:38:50;19.65;;;13.82;;
63312;SDS011;49442;45.640;13.812;2023-06-22T05:41:16;26.83;;;13.90;;
63312;SDS011;49442;45.640;13.812;2023-06-22T05:43:42;29.70;;;12.65;;
63312;SDS011;49442;45.640;13.812;2023-06-22T05:46:08;22.10;;;13.55;;
63312;SDS011;49442;45.640;13.812;2023-06-22T05:48:33;18.48;;;13.52;;
63312;SDS011;49442;45.640;13.812;2023-06-22T05:50:59;16.67;;;12.35;;
63312;SDS011;49442;45.640;13.812;2023-06-22T05:53:25;20.90;;;13.73;;
63312;SDS011;49442;45.640;13.812;2023-06-22T05:55:50;19.52;;;13.25;;
63312;SDS011;49442;45.640;13.812;2023-06-22T05:58:16;17.85;;;13.27;;
63312;SDS011;49442;45.640;13.812;2023-06-22T06:00:42;19.83;;;13.20;;
63312;SDS011;49442;45.640;13.812;2023-06-22T06:03:08;18.02;;;13.30;;
63312;SDS011;49442;45.640;13.812;2023-06-22T06:05:35;19.08;;;12.70;;
63312;SDS011;49442;45.640;13.812;2023-06-22T06:08:02;23.48;;;13.82;;
63312;SDS011;49442;45.640;13.812;2023-06-22T06:10:34;20.60;;;12.18;;
63312;SDS011;49442;45.640;13.812;2023-06-22T06:13:00;26.85;;;13.68;;
63312;SDS011;49442;45.640;13.812;2023-06-22T06:15:32;20.08;;;13.15;;
63312;SDS011;49442;45.640;13.812;2023-06-22T06:17:59;17.58;;;12.90;;
63312;SDS011;49442;45.640;13.812;2023-06-22T06:20:25;22.55;;;13.60;;
63312;SDS011;49442;45.640;13.812;2023-06-22T06:22:53;20.15;;;12.32;;
63312;SDS011;49442;45.640;13.812;2023-06-22T06:25:18;19.02;;;13.18;;
63312;SDS011;49442;45.640;13.812;2023-06-22T06:27:46;19.27;;;13.15;;
63312;SDS011;49442;45.640;13.812;2023-06-22T06:30:14;18.48;;;12.63;;
63312;SDS011;49442;45.640;13.812;2023-06-22T06:32:40;18.27;;;13.57;;
63312;SDS011;49442;45.640;13.812;2023-06-22T06:35:07;18.73;;;12.38;;
63312;SDS011;49442;45.640;13.812;2023-06-22T06:37:38;16.23;;;12.18;;
63312;SDS011;49442;45.640;13.812;2023-06-22T06:42:39;19.55;;;13.65;;
63312;SDS011;49442;45.640;13.812;2023-06-22T06:47:33;18.90;;;12.73;;
63312;SDS011;49442;45.640;13.812;2023-06-22T06:49:59;19.58;;;14.00;;
63312;SDS011;49442;45.640;13.812;2023-06-22T06:52:25;19.10;;;13.43;;
63312;SDS011;49442;45.640;13.812;2023-06-22T06:54:50;19.38;;;13.10;;
63312;SDS011;49442;45.640;13.812;2023-06-22T06:57:17;17.25;;;12.52;;
63312;SDS011;49442;45.640;13.812;2023-06-22T06:59:43;18.10;;;12.45;;
63312;SDS011;49442;45.640;13.812;2023-06-22T07:02:09;16.77;;;13.38;;
63312;SDS011;49442;45.640;13.812;2023-06-22T07:04:35;15.60;;;12.25;;
63312;SDS011;49442;45.640;13.812;2023-06-22T07:07:01;18.45;;;12.88;;
63312;SDS011;49442;45.640;13.812;2023-06-22T07:09:27;24.63;;;14.15;;
63312;SDS011;49442;45.640;13.812;2023-06-22T07:11:53;19.05;;;12.77;;
63312;SDS011;49442;45.640;13.812;2023-06-22T07:14:18;16.70;;;13.15;;
63312;SDS011;49442;45.640;13.812;2023-06-22T07:16:44;17.55;;;12.32;;
63312;SDS011;49442;45.640;13.812;2023-06-22T07:19:11;19.45;;;13.00;;
63312;SDS011;49442;45.640;13.812;2023-06-22T07:21:37;18.15;;;12.20;;
63312;SDS011;49442;45.640;13.812;2023-06-22T07:24:04;18.05;;;12.85;;
63312;SDS011;49442;45.640;13.812;2023-06-22T07:26:31;23.50;;;13.15;;
63312;SDS011;49442;45.640;13.812;2023-06-22T07:28:57;18.08;;;12.88;;
63312;SDS011;49442;45.640;13.812;2023-06-22T07:31:26;17.00;;;12.60;;
63312;SDS011;49442;45.640;13.812;2023-06-22T07:33:52;19.83;;;14.25;;
63312;SDS011;49442;45.640;13.812;2023-06-22T07:36:18;19.25;;;13.40;;
63312;SDS011;49442;45.640;13.812;2023-06-22T07:38:43;22.55;;;14.35;;
63312;SDS011;49442;45.640;13.812;2023-06-22T07:41:09;16.45;;;13.18;;
63312;SDS011;49442;45.640;13.812;2023-06-22T07:43:35;20.05;;;12.55;;
63312;SDS011;49442;45.640;13.812;2023-06-22T07:46:04;22.35;;;12.98;;
63312;SDS011;49442;45.640;13.812;2023-06-22T07:48:30;15.07;;;13.50;;
63312;SDS011;49442;45.640;13.812;2023-06-22T07:50:56;16.48;;;12.98;;
63312;SDS011;49442;45.640;13.812;2023-06-22T07:53:22;25.52;;;13.15;;
63312;SDS011;49442;45.640;13.812;2023-06-22T07:55:48;19.80;;;12.88;;
63312;SDS011;49442;45.640;13.812;2023-06-22T07:58:14;18.30;;;13.45;;
63312;SDS011;49442;45.640;13.812;2023-06-22T08:00:40;22.00;;;14.68;;
63312;SDS011;49442;45.640;13.812;2023-06-22T08:03:06;16.13;;;11.73;;
63312;SDS011;49442;45.640;13.812;2023-06-22T08:05:32;22.02;;;13.10;;
63312;SDS011;49442;45.640;13.812;2023-06-22T08:07:58;17.30;;;13.25;;
63312;SDS011;49442;45.640;13.812;2023-06-22T08:10:24;27.90;;;15.18;;
63312;SDS011;49442;45.640;13.812;2023-06-22T08:12:50;21.40;;;14.48;;
63312;SDS011;49442;45.640;13.812;2023-06-22T08:15:17;22.92;;;14.27;;
63312;SDS011;49442;45.640;13.812;2023-06-22T08:17:43;20.17;;;13.60;;
63312;SDS011;49442;45.640;13.812;2023-06-22T08:20:11;14.48;;;12.13;;
63312;SDS011;49442;45.640;13.812;2023-06-22T08:22:37;17.67;;;12.10;;
63312;SDS011;49442;45.640;13.812;2023-06-22T08:25:03;17.75;;;13.00;;
63312;SDS011;49442;45.640;13.812;2023-06-22T08:27:30;22.23;;;14.15;;
63312;SDS011;49442;45.640;13.812;2023-06-22T08:29:59;16.75;;;12.10;;
63312;SDS011;49442;45.640;13.812;2023-06-22T08:32:25;19.88;;;13.68;;
63312;SDS011;49442;45.640;13.812;2023-06-22T08:34:53;15.80;;;11.50;;
63312;SDS011;49442;45.640;13.812;2023-06-22T08:37:19;23.15;;;12.60;;
63312;SDS011;49442;45.640;13.812;2023-06-22T08:39:45;24.35;;;14.68;;
63312;SDS011;49442;45.640;13.812;2023-06-22T08:42:11;25.75;;;14.45;;
63312;SDS011;49442;45.640;13.812;2023-06-22T08:44:37;42.90;;;14.88;;
63312;SDS011;49442;45.640;13.812;2023-06-22T08:47:03;21.33;;;12.32;;
63312;SDS011;49442;45.640;13.812;2023-06-22T08:49:29;18.40;;;12.30;;
63312;SDS011;49442;45.640;13.812;2023-06-22T08:51:54;17.42;;;12.88;;
63312;SDS011;49442;45.640;13.812;2023-06-22T08:54:21;17.55;;;12.75;;
63312;SDS011;49442;45.640;13.812;2023-06-22T08:56:47;16.70;;;12.00;;
63312;SDS011;49442;45.640;13.812;2023-06-22T08:59:13;22.15;;;13.35;;
63312;SDS011;49442;45.640;13.812;2023-06-22T09:01:39;19.60;;;12.70;;
63312;SDS011;49442;45.640;13.812;2023-06-22T09:04:04;21.73;;;13.77;;
63312;SDS011;49442;45.640;13.812;2023-06-22T09:06:32;18.48;;;11.52;;
63312;SDS011;49442;45.640;13.812;2023-06-22T09:08:58;17.42;;;12.77;;
63312;SDS011;49442;45.640;13.812;2023-06-22T09:11:26;18.50;;;12.57;;
63312;SDS011;49442;45.640;13.812;2023-06-22T09:13:52;15.57;;;12.25;;
63312;SDS011;49442;45.640;13.812;2023-06-22T09:16:18;17.48;;;10.95;;
63312;SDS011;49442;45.640;13.812;2023-06-22T09:18:47;18.02;;;11.88;;
63312;SDS011;49442;45.640;13.812;2023-06-22T09:21:13;17.42;;;11.95;;
63312;SDS011;49442;45.640;13.812;2023-06-22T09:23:39;20.65;;;11.85;;
63312;SDS011;49442;45.640;13.812;2023-06-22T09:26:05;19.50;;;11.95;;
63312;SDS011;49442;45.640;13.812;2023-06-22T09:28:31;20.35;;;12.05;;
63312;SDS011;49442;45.640;13.812;2023-06-22T09:30:57;15.25;;;11.85;;
63312;SDS011;49442;45.640;13.812;2023-06-22T09:33:24;17.10;;;10.57;;
63312;SDS011;49442;45.640;13.812;2023-06-22T09:35:51;18.40;;;11.38;;
63312;SDS011;49442;45.640;13.812;2023-06-22T09:38:16;19.85;;;11.93;;
63312;SDS011;49442;45.640;13.812;2023-06-22T09:40:42;25.20;;;12.02;;
63312;SDS011;49442;45.640;13.812;2023-06-22T09:43:08;18.42;;;11.07;;
63312;SDS011;49442;45.640;13.812;2023-06-22T09:45:34;15.82;;;11.13;;
63312;SDS011;49442;45.640;13.812;2023-06-22T09:47:59;17.35;;;12.10;;
63312;SDS011;49442;45.640;13.812;2023-06-22T09:50:25;19.85;;;12.38;;
63312;SDS011;49442;45.640;13.812;2023-06-22T09:52:51;15.45;;;11.48;;
63312;SDS011;49442;45.640;13.812;2023-06-22T09:55:20;20.38;;;11.77;;
63312;SDS011;49442;45.640;13.812;2023-06-22T09:57:46;14.45;;;11.05;;
63312;SDS011;49442;45.640;13.812;2023-06-22T10:00:12;15.88;;;11.35;;
63312;SDS011;49442;45.640;13.812;2023-06-22T10:02:40;16.85;;;11.57;;
63312;SDS011;49442;45.640;13.812;2023-06-22T10:05:07;18.17;;;11.20;;
63312;SDS011;49442;45.640;13.812;2023-06-22T10:07:33;18.60;;;11.55;;
63312;SDS011;49442;45.640;13.812;2023-06-22T10:09:59;19.00;;;11.40;;
63312;SDS011;49442;45.640;13.812;2023-06-22T10:12:26;16.65;;;11.35;;
63312;SDS011;49442;45.640;13.812;2023-06-22T10:14:52;14.45;;;10.82;;
63312;SDS011;49442;45.640;13.812;2023-06-22T10:17:18;13.45;;;10.65;;
63312;SDS011;49442;45.640;13.812;2023-06-22T10:19:44;13.25;;;10.50;;
63312;SDS011;49442;45.640;13.812;2023-06-22T10:22:09;19.50;;;13.98;;
63312;SDS011;49442;45.640;13.812;2023-06-22T10:24:35;23.42;;;14.63;;
63312;SDS011;49442;45.640;13.812;2023-06-22T10:27:01;19.58;;;10.13;;
63312;SDS011;49442;45.640;13.812;2023-06-22T10:29:28;17.55;;;10.48;;
63312;SDS011;49442;45.640;13.812;2023-06-22T10:31:53;15.57;;;11.30;;
63312;SDS011;49442;45.640;13.812;2023-06-22T10:34:19;18.35;;;11.65;;
63312;SDS011;49442;45.640;13.812;2023-06-22T10:36:45;15.45;;;10.50;;
63312;SDS011;49442;45.640;13.812;2023-06-22T10:39:13;20.60;;;11.75;;
63312;SDS011;49442;45.640;13.812;2023-06-22T10:41:40;16.60;;;13.65;;
63312;SDS011;49442;45.640;13.812;2023-06-22T10:44:05;13.80;;;11.27;;
63312;SDS011;49442;45.640;13.812;2023-06-22T10:46:31;18.23;;;11.52;;
63312;SDS011;49442;45.640;13.812;2023-06-22T10:48:57;18.40;;;12.43;;
63312;SDS011;49442;45.640;13.812;2023-06-22T10:51:23;21.52;;;12.05;;
63312;SDS011;49442;45.640;13.812;2023-06-22T10:53:50;18.17;;;12.50;;
63312;SDS011;49442;45.640;13.812;2023-06-22T10:56:16;15.30;;;12.05;;
63312;SDS011;49442;45.640;13.812;2023-06-22T10:58:42;12.60;;;11.30;;
63312;SDS011;49442;45.640;13.812;2023-06-22T11:01:09;16.35;;;12.75;;
63312;SDS011;49442;45.640;13.812;2023-06-22T11:03:35;21.92;;;13.23;;
63312;SDS011;49442;45.640;13.812;2023-06-22T11:06:01;15.57;;;12.10;;
63312;SDS011;49442;45.640;13.812;2023-06-22T11:08:26;17.23;;;12.00;;
63312;SDS011;49442;45.640;13.812;2023-06-22T11:10:52;17.52;;;11.57;;
63312;SDS011;49442;45.640;13.812;2023-06-22T11:13:18;17.30;;;12.65;;
63312;SDS011;49442;45.640;13.812;2023-06-22T11:15:43;25.85;;;13.10;;
63312;SDS011;49442;45.640;13.812;2023-06-22T11:18:09;21.35;;;12.52;;
63312;SDS011;49442;45.640;13.812;2023-06-22T11:20:35;17.05;;;12.27;;
63312;SDS011;49442;45.640;13.812;2023-06-22T11:23:04;17.13;;;13.00;;
63312;SDS011;49442;45.640;13.812;2023-06-22T11:25:31;19.10;;;12.68;;
63312;SDS011;49442;45.640;13.812;2023-06-22T11:27:57;22.80;;;12.32;;
63312;SDS011;49442;45.640;13.812;2023-06-22T11:30:23;19.48;;;11.77;;
63312;SDS011;49442;45.640;13.812;2023-06-22T11:32:48;21.17;;;12.88;;
63312;SDS011;49442;45.640;13.812;2023-06-22T11:35:14;24.95;;;12.48;;
63312;SDS011;49442;45.640;13.812;2023-06-22T11:37:39;17.75;;;11.70;;
63312;SDS011;49442;45.640;13.812;2023-06-22T11:40:05;15.20;;;11.95;;
63312;SDS011;49442;45.640;13.812;2023-06-22T11:42:34;17.77;;;12.82;;
63312;SDS011;49442;45.640;13.812;2023-06-22T11:45:00;20.20;;;11.45;;
63312;SDS011;49442;45.640;13.812;2023-06-22T11:47:26;15.60;;;12.18;;
63312;SDS011;49442;45.640;13.812;2023-06-22T11:49:52;16.02;;;11.70;;
63312;SDS011;49442;45.640;13.812;2023-06-22T11:52:18;16.15;;;11.88;;
63312;SDS011;49442;45.640;13.812;2023-06-22T11:54:45;15.85;;;11.30;;
63312;SDS011;49442;45.640;13.812;2023-06-22T11:57:10;14.98;;;11.27;;
63312;SDS011;49442;45.640;13.812;2023-06-22T11:59:36;16.85;;;12.40;;
63312;SDS011;49442;45.640;13.812;2023-06-22T12:02:02;16.98;;;12.25;;
63312;SDS011;49442;45.640;13.812;2023-06-22T12:04:29;13.50;;;11.35;;
63312;SDS011;49442;45.640;13.812;2023-06-22T12:06:54;18.98;;;10.90;;
63312;SDS011;49442;45.640;13.812;2023-06-22T12:09:20;17.30;;;10.73;;
63312;SDS011;49442;45.640;13.812;2023-06-22T12:11:46;16.33;;;10.55;;
63312;SDS011;49442;45.640;13.812;2023-06-22T12:14:11;15.02;;;9.98;;
63312;SDS011;49442;45.640;13.812;2023-06-22T12:16:37;21.52;;;11.65;;
63312;SDS011;49442;45.640;13.812;2023-06-22T12:19:03;13.40;;;10.23;;
63312;SDS011;49442;45.640;13.812;2023-06-22T12:21:29;13.35;;;10.45;;
63312;SDS011;49442;45.640;13.812;2023-06-22T12:23:55;13.68;;;10.77;;
63312;SDS011;49442;45.640;13.812;2023-06-22T12:26:21;22.13;;;10.63;;
63312;SDS011;49442;45.640;13.812;2023-06-22T12:28:47;17.10;;;9.30;;
63312;SDS011;49442;45.640;13.812;2023-06-22T12:31:13;18.95;;;10.57;;
63312;SDS011;49442;45.640;13.812;2023-06-22T12:33:39;11.52;;;8.85;;
63312;SDS011;49442;45.640;13.812;2023-06-22T12:36:05;15.30;;;8.63;;
63312;SDS011;49442;45.640;13.812;2023-06-22T12:38:30;17.77;;;9.13;;
63312;SDS011;49442;45.640;13.812;2023-06-22T12:40:56;16.50;;;9.93;;
63312;SDS011;49442;45.640;13.812;2023-06-22T12:43:22;19.80;;;10.38;;
63312;SDS011;49442;45.640;13.812;2023-06-22T12:45:47;24.77;;;10.13;;
63312;SDS011;49442;45.640;13.812;2023-06-22T12:48:13;13.55;;;9.10;;
63312;SDS011;49442;45.640;13.812;2023-06-22T12:50:39;12.82;;;8.77;;
63312;SDS011;49442;45.640;13.812;2023-06-22T12:53:04;15.20;;;9.10;;
63312;SDS011;49442;45.640;13.812;2023-06-22T12:55:31;18.95;;;8.98;;
63312;SDS011;49442;45.640;13.812;2023-06-22T12:57:57;12.95;;;8.50;;
63312;SDS011;49442;45.640;13.812;2023-06-22T13:00:23;10.88;;;8.57;;
63312;SDS011;49442;45.640;13.812;2023-06-22T13:02:48;21.30;;;9.60;;
63312;SDS011;49442;45.640;13.812;2023-06-22T13:05:14;15.07;;;9.52;;
63312;SDS011;49442;45.640;13.812;2023-06-22T13:07:40;12.50;;;8.85;;
63312;SDS011;49442;45.640;13.812;2023-06-22T13:10:07;12.13;;;8.82;;
63312;SDS011;49442;45.640;13.812;2023-06-22T13:12:33;13.80;;;9.05;;
63312;SDS011;49442;45.640;13.812;2023-06-22T13:14:59;14.15;;;8.73;;
63312;SDS011;49442;45.640;13.812;2023-06-22T13:17:25;14.60;;;9.95;;
63312;SDS011;49442;45.640;13.812;2023-06-22T13:19:51;16.02;;;9.07;;
63312;SDS011;49442;45.640;13.812;2023-06-22T13:22:30;13.48;;;8.70;;
63312;SDS011;49442;45.640;13.812;2023-06-22T13:24:56;10.80;;;8.60;;
63312;SDS011;49442;45.640;13.812;2023-06-22T13:27:23;14.57;;;8.55;;
63312;SDS011;49442;45.640;13.812;2023-06-22T13:29:49;12.55;;;8.00;;
63312;SDS011;49442;45.640;13.812;2023-06-22T13:32:15;14.57;;;8.57;;
63312;SDS011;49442;45.640;13.812;2023-06-22T13:34:41;15.35;;;7.70;;
63312;SDS011;49442;45.640;13.812;2023-06-22T13:37:07;13.35;;;6.78;;
63312;SDS011;49442;45.640;13.812;2023-06-22T13:39:33;10.35;;;6.43;;
63312;SDS011;49442;45.640;13.812;2023-06-22T13:41:58;15.68;;;6.82;;
63312;SDS011;49442;45.640;13.812;2023-06-22T13:44:24;19.10;;;8.60;;
63312;SDS011;49442;45.640;13.812;2023-06-22T13:46:53;15.25;;;7.57;;
63312;SDS011;49442;45.640;13.812;2023-06-22T13:49:19;24.48;;;7.70;;
63312;SDS011;49442;45.640;13.812;2023-06-22T13:51:46;20.67;;;8.40;;
63312;SDS011;49442;45.640;13.812;2023-06-22T13:54:13;13.98;;;7.03;;
63312;SDS011;49442;45.640;13.812;2023-06-22T13:56:39;12.05;;;7.05;;
63312;SDS011;49442;45.640;13.812;2023-06-22T13:59:04;11.98;;;7.50;;
63312;SDS011;49442;45.640;13.812;2023-06-22T14:01:31;12.50;;;7.82;;
63312;SDS011;49442;45.640;13.812;2023-06-22T14:03:57;10.68;;;7.18;;
63312;SDS011;49442;45.640;13.812;2023-06-22T14:06:23;11.15;;;7.18;;
63312;SDS011;49442;45.640;13.812;2023-06-22T14:08:48;10.43;;;6.20;;
63312;SDS011;49442;45.640;13.812;2023-06-22T14:11:15;15.75;;;7.45;;
63312;SDS011;49442;45.640;13.812;2023-06-22T14:13:41;14.30;;;7.07;;
63312;SDS011;49442;45.640;13.812;2023-06-22T14:16:08;21.25;;;6.55;;
63312;SDS011;49442;45.640;13.812;2023-06-22T14:18:33;14.98;;;7.45;;
63312;SDS011;49442;45.640;13.812;2023-06-22T14:20:59;18.20;;;6.28;;
63312;SDS011;49442;45.640;13.812;2023-06-22T14:23:25;14.40;;;6.65;;